Weather reports worldwide

Advertisment
Wick Airport, United Kingdom (2003075): temperature & dewpoint: 15.07.2018 02:00:00 - 21.07.2018 02:00:00 (BST)Wick Airport, United Kingdom (2003075): wind speed: 15.07.2018 02:00:00 - 21.07.2018 02:00:00 (BST)Wick Airport, United Kingdom (2003075): wind direction: 15.07.2018 02:00:00 - 21.07.2018 02:00:00 (BST)Wick Airport, United Kingdom (2003075): visibility: 15.07.2018 02:00:00 - 21.07.2018 02:00:00 (BST)
Date & Time tt [°C] td [°C] ff [km/h] ff [kn] dd vv [km]
21.07.2018 02:00:00 12,0 11,0 9 5 NW 9
21.07.2018 01:00:00 12,0 11,0 9 5 NW 7
21.07.2018 00:00:00 12,0 11,0 11 6 NW 8
20.07.2018 23:00:00 12,0 11,0 15 8 NW 10
20.07.2018 22:00:00 12,0 11,0 15 8 NW 10
20.07.2018 21:00:00 13,0 12,0 13 7 NW 10
20.07.2018 20:00:00 14,0 12,0 11 6 NNW 10
20.07.2018 19:00:00 14,0 13,0 13 7 N 10
20.07.2018 18:00:00 15,0 14,0 11 6 N 10
20.07.2018 17:00:00 15,0 14,0 4 2 ESE 10
20.07.2018 16:00:00 15,0 14,0 8 4 ESE 10
20.07.2018 15:00:00 15,0 14,0 8 4 ENE 4,0
20.07.2018 14:00:00 15,0 14,0 2 1 - 4,0
20.07.2018 13:00:00 16,0 14,0 8 4 SSE 9
20.07.2018 12:00:00 16,0 15,0 2 1 - 10
20.07.2018 11:00:00 16,0 14,0 8 4 WSW 10
20.07.2018 10:00:00 15,0 13,0 9 5 WSW 10
20.07.2018 09:00:00 14,0 13,0 8 4 SW 10
20.07.2018 08:00:00 13,0 13,0 11 6 SW 3,4
20.07.2018 07:00:00 13,0 12,0 9 5 W 10
20.07.2018 06:00:00 13,0 12,0 11 6 SW 10
20.07.2018 05:00:00 13,0 12,0 8 4 SW 10
20.07.2018 04:00:00 13,0 12,0 8 4 SSW 10
20.07.2018 03:00:00 13,0 12,0 9 5 SW 10
20.07.2018 02:00:00 14,0 11,0 8 4 SW 10
20.07.2018 01:00:00 15,0 10,0 5 3 SSW 10
20.07.2018 00:00:00 14,0 11,0 2 1 SW 10
19.07.2018 23:00:00 14,0 12,0 5 3 W 10
19.07.2018 22:00:00 16,0 12,0 8 4 W 10
19.07.2018 21:00:00 15,0 13,0 2 1 - 10
19.07.2018 20:00:00 15,0 12,0 4 2 - 10
19.07.2018 19:00:00 16,0 11,0 9 5 ESE 10
19.07.2018 18:00:00 17,0 11,0 5 3 - 10
19.07.2018 17:00:00 18,0 11,0 13 7 ENE 10
19.07.2018 16:00:00 17,0 11,0 8 4 ENE 10
19.07.2018 15:00:00 17,0 12,0 13 7 ENE 10
19.07.2018 14:00:00 17,0 12,0 16 9 NNE 10
19.07.2018 13:00:00 18,0 12,0 18 10 S 10
19.07.2018 12:00:00 18,0 14,0 15 8 S 10
19.07.2018 11:00:00 18,0 14,0 15 8 S 10
19.07.2018 10:00:00 17,0 14,0 11 6 S 10
19.07.2018 09:00:00 16,0 14,0 8 4 S 10
19.07.2018 08:00:00 14,0 13,0 11 6 SSE 10
19.07.2018 07:00:00 14,0 13,0 11 6 SSE 10
19.07.2018 06:00:00 13,0 12,0 9 5 SSE 10
19.07.2018 05:00:00 13,0 12,0 11 6 SSE 10
19.07.2018 04:00:00 13,0 12,0 13 7 SSE 10
19.07.2018 03:00:00 13,0 11,0 8 4 SE 10
19.07.2018 02:00:00 13,0 11,0 8 4 SE 10
19.07.2018 01:00:00 13,0 11,0 5 3 SSE 10
19.07.2018 00:00:00 12,0 11,0 9 5 SSE 10
18.07.2018 23:00:00 11,0 10,0 5 3 SSE 10
18.07.2018 22:00:00 12,0 11,0 4 2 SSE 10
18.07.2018 21:00:00 12,0 11,0 4 2 SSE 10
18.07.2018 20:00:00 13,0 11,0 4 2 SE 10
18.07.2018 19:00:00 14,0 11,0 2 1 - 10
18.07.2018 18:00:00 14,0 12,0 5 3 - 10
18.07.2018 17:00:00 13,0 11,0 4 2 - 10
18.07.2018 16:00:00 14,0 11,0 0 0 N 10
18.07.2018 15:00:00 13,0 11,0 8 4 S 10
18.07.2018 14:00:00 14,0 11,0 8 4 E 10
18.07.2018 13:00:00 13,0 11,0 9 5 N 10
18.07.2018 12:00:00 15,0 12,0 15 8 S 10
18.07.2018 11:00:00 16,0 10,0 8 4 NW 10
18.07.2018 10:00:00 15,0 11,0 9 5 WNW 10
18.07.2018 09:00:00 14,0 10,0 13 7 WNW 10
18.07.2018 08:00:00 13,0 11,0 5 3 W 10
18.07.2018 07:00:00 12,0 10,0 4 2 W 10
18.07.2018 06:00:00 11,0 10,0 5 3 WNW 10
18.07.2018 05:00:00 12,0 10,0 2 1 WSW 10
18.07.2018 04:00:00 12,0 10,0 4 2 WSW 10
18.07.2018 03:00:00 11,0 11,0 4 2 WSW 10
18.07.2018 02:00:00 11,0 11,0 2 1 - 10
18.07.2018 01:00:00 12,0 11,0 0 0 N 10
18.07.2018 00:00:00 12,0 11,0 0 0 N 10
17.07.2018 23:00:00 12,0 12,0 5 3 WNW 10
17.07.2018 22:00:00 12,0 11,0 4 2 N 10
17.07.2018 21:00:00 12,0 11,0 8 4 N 10
17.07.2018 20:00:00 13,0 12,0 8 4 N 10
17.07.2018 19:00:00 13,0 12,0 9 5 N 10
17.07.2018 18:00:00 13,0 12,0 13 7 N 10
17.07.2018 17:00:00 15,0 13,0 2 1 - 10
17.07.2018 16:00:00 15,0 13,0 4 2 - 10
17.07.2018 15:00:00 14,0 12,0 5 3 - 10
17.07.2018 14:00:00 15,0 12,0 5 3 - 10
17.07.2018 13:00:00 14,0 13,0 5 3 - 10
17.07.2018 12:00:00 15,0 13,0 5 3 E 10
17.07.2018 11:00:00 16,0 12,0 11 6 NNE 10
17.07.2018 10:00:00 15,0 14,0 2 1 - 10
17.07.2018 09:00:00 14,0 14,0 2 1 - 10
17.07.2018 08:00:00 13,0 13,0 4 2 - 1,5
17.07.2018 07:00:00 13,0 13,0 2 1 - 0,6
17.07.2018 06:00:00 13,0 13,0 0 0 N 1,4
17.07.2018 05:00:00 13,0 13,0 0 0 N 0,2
17.07.2018 04:00:00 13,0 12,0 4 2 SE 0,3
17.07.2018 03:00:00 13,0 12,0 2 1 SE 0,5
17.07.2018 02:00:00 13,0 12,0 4 2 SE 1,2
17.07.2018 01:00:00 13,0 13,0 5 3 ESE 8
17.07.2018 00:00:00 13,0 12,0 2 1 ESE 10
16.07.2018 23:00:00 13,0 12,0 8 4 ESE 10
16.07.2018 22:00:00 13,0 12,0 8 4 SE 9
16.07.2018 21:00:00 13,0 12,0 11 6 SE 6
16.07.2018 20:00:00 13,0 12,0 8 4 SSE 10
16.07.2018 19:00:00 13,0 13,0 13 7 SE 10
16.07.2018 18:00:00 14,0 13,0 13 7 SE 10
16.07.2018 17:00:00 13,0 13,0 16 9 SE 6
16.07.2018 16:00:00 13,0 13,0 16 9 SE 9
16.07.2018 15:00:00 13,0 13,0 13 7 SE 9
16.07.2018 14:00:00 13,0 13,0 11 6 ESE 5
16.07.2018 13:00:00 12,0 12,0 11 6 ESE 3,0
16.07.2018 12:00:00 12,0 12,0 9 5 ESE 2,5
16.07.2018 11:00:00 13,0 12,0 9 5 E 10
16.07.2018 10:00:00 13,0 13,0 4 2 ENE 4,0
16.07.2018 09:00:00 13,0 12,0 9 5 N 3,0
16.07.2018 08:00:00 13,0 12,0 13 7 NNW 6
16.07.2018 07:00:00 14,0 12,0 16 9 NNW 10
16.07.2018 06:00:00 14,0 12,0 15 8 N 10
16.07.2018 05:00:00 14,0 14,0 15 8 N 10
16.07.2018 04:00:00 16,0 15,0 8 4 SSW 10
16.07.2018 03:00:00 15,0 15,0 5 3 S 8
16.07.2018 02:00:00 16,0 15,0 4 2 - 10
16.07.2018 01:00:00 16,0 15,0 8 4 SSE 9
16.07.2018 00:00:00 16,0 15,0 2 1 - 10
15.07.2018 23:00:00 16,0 15,0 5 3 S 10
15.07.2018 22:00:00 16,0 15,0 8 4 SE 10
15.07.2018 21:00:00 17,0 16,0 8 4 SSE 10
15.07.2018 20:00:00 17,0 16,0 8 4 SSE 10
15.07.2018 19:00:00 17,0 16,0 5 3 S 10
15.07.2018 18:00:00 17,0 16,0 8 4 S 10
15.07.2018 17:00:00 17,0 16,0 9 5 S 10
15.07.2018 16:00:00 18,0 16,0 9 5 S 10
15.07.2018 15:00:00 17,0 15,0 8 4 S 10
15.07.2018 14:00:00 18,0 16,0 11 6 SSE 10
15.07.2018 13:00:00 19,0 16,0 11 6 S 10
15.07.2018 12:00:00 21,0 17,0 11 6 S 10
15.07.2018 11:00:00 20,0 17,0 13 7 SSW 10
15.07.2018 10:00:00 19,0 16,0 9 5 SSW 10
15.07.2018 09:00:00 19,0 17,0 5 3 - 10
15.07.2018 08:00:00 18,0 16,0 4 2 - 10
15.07.2018 07:00:00 16,0 15,0 8 4 S 10
15.07.2018 06:00:00 16,0 15,0 13 7 SSW 10
15.07.2018 05:00:00 16,0 15,0 11 6 SSW 9
15.07.2018 04:00:00 17,0 15,0 15 8 SSW 10
15.07.2018 03:00:00 17,0 15,0 15 8 SSW 10
15.07.2018 02:00:00 16,0 15,0 13 7 SSW 10

tt = temperature
td = dewpoint
ff = wind speed
dd = wind direction
vv = visibility

Next stations